메인 페이지
METAR-TAF:

METAR-TAF

공항 :

블라디보스토크, 러시아

블라디보스토크 국제공항

위도: 43-07N, 경도: 131-56E, 고도: 184m

현재 날씨관측

예보는 26분 전, 00:30시(UTC)에 발표되었습니다.
4kt서북서풍과 북북동풍을 오가는
온도 -11°C
습도 43%
기압 1027 hPa
시정 10km 이상

METAR: UHWW 180030Z 35002MPS 300V020 9999 NSC M11/M21 Q1027 R25L/0///70 NOSIG RMK QFE769

시각: 10:56 (00:56 UTC)

예보

예보는 1 시간 58분 전, 22:58시(UTC)에 발표되었습니다.
예보 대상 시간: 18일 00시부터 18일 24시까지 (UTC)
6kt
시정 10km 이상
일시적
18일 00시부터 18일 09시까지 (UTC)
북북서19kt
고도 3000ft 상공 구름 보통
전환 중
18일 11시부터 18일 13시까지 (UTC)
여러 방향의 바람 2kt

TAF: UHWW 172258Z 1800/1824 35003MPS 9999 NSC TEMPO 1800/1809 34010MPS SCT030 BECMG 1811/1813 VRB01MPS

4,000개 이상의 공항 관측 자료 및 예보 (METAR 및 TAF 보고).

지도상에서 검색 가능한 기상관측소가 노란 점과 빨간 점으로 표시되어 있습니다.

기상관측소 명을 보려면 표시 위로 마우스를 이동하세요.

날씨 관측과 예보를 보려면 클릭하세요.

지도 변경 : 확대하려면 엑스 표시가 있는 녹색 버튼, 축소하려면 빼기 표시가 있는 녹색 버튼, 다음 페이지의 지도를 보려면 녹색 화살표를 클릭하세요.


METAR-TAF: